KCOT/COT METAR and TAF weather

Enter ICAO airport designator
Station Type Date Time Source
KCOT METAR 2020/02/24 07:53 UTC NOAA

KCOT 240753Z AUTO 11005KT 10SM CLR 18/17 A2986 RMK AO2 SLP103 T01830172


Station Type Date Time Source
KCOT Decoded METAR 2020/02/24 07:53 UTC NOAA

COTULLA-LASALLE COUNTY AIRPORT , TX, United States (KCOT) 28-27N 099-13W 140M
Feb 24, 2020 - 02:53 AM EST / 2020.02.24 0753 UTC
Wind: from the ESE (110 degrees) at 6 MPH (5 KT):0
Visibility: 10 mile(s):0
Sky conditions: clear
Temperature: 64.9 F (18.3 C)
Dew Point: 63.0 F (17.2 C)
Relative Humidity: 93%
Pressure (altimeter): 29.86 in. Hg (1011 hPa)
ob: KCOT 240753Z AUTO 11005KT 10SM CLR 18/17 A2986 RMK AO2 SLP103 T01830172
cycle: 8

Station Type Date Time Source
KCOT TAF 2020/02/24 06:21 UTC NOAA

TAF KCOT 240520Z 2406/2506 13011KT P6SM SCT250
FM240900 13004KT P6SM BKN012 OVC020
FM241300 35006KT P6SM SCT020 BKN250
FM241600 32013G20KT P6SM BKN250
FM250000 03004KT P6SM SCT250

Example: see airport list